Time;durP1;ratioP1;P1;durP2;ratioP2;P2;SDS_P1;SDS_P2;PMS_P1;PMS_P2;Temp;Humidity;BMP_temperature;BMP_pressure;BME280_temperature;BME280_humidity;BME280_pressure;Samples;Min_cycle;Max_cycle;Signal;HPM_P1;HPM_P2
2021/03/23 00:00:15;;;;;;;2.83;2.40;;;;;;;18.70;51.31;102630.47;5051855;28;20041;-75
2021/03/23 00:02:40;;;;;;;2.33;1.45;;;;;;;18.64;51.33;102623.38;5052918;28;20478;-75
2021/03/23 00:05:09;;;;;;;2.88;1.63;;;;;;;18.69;51.44;102637.47;5051855;28;20052;-75
2021/03/23 00:07:35;;;;;;;2.50;1.80;;;;;;;18.68;51.30;102629.56;5052199;28;20052;-75
2021/03/23 00:10:00;;;;;;;1.85;1.20;;;;;;;18.68;51.45;102638.31;5057428;28;20026;-75
2021/03/23 00:12:25;;;;;;;2.50;1.58;;;;;;;18.64;51.29;102625.09;5053279;28;20059;-75
2021/03/23 00:14:51;;;;;;;2.17;1.60;;;;;;;18.61;51.46;102623.28;5047779;28;20037;-75
2021/03/23 00:17:16;;;;;;;2.22;1.60;;;;;;;18.48;51.35;102605.50;5055516;28;20028;-75
2021/03/23 00:19:41;;;;;;;2.58;1.73;;;;;;;18.67;51.37;102633.94;5055777;28;20033;-75
2021/03/23 00:22:07;;;;;;;3.55;1.60;;;;;;;18.57;51.24;102614.44;5056378;28;20091;-75
2021/03/23 00:24:32;;;;;;;2.13;1.40;;;;;;;18.64;51.36;102625.09;5055047;28;20029;-75
2021/03/23 00:26:57;;;;;;;2.78;1.67;;;;;;;18.65;51.21;102627.75;5071941;28;20083;-75
2021/03/23 00:29:23;;;;;;;2.42;1.48;;;;;;;18.66;51.34;102631.28;5038253;28;20033;-75
2021/03/23 00:31:48;;;;;;;2.08;1.60;;;;;;;18.61;51.23;102612.81;5056255;28;20076;-75
2021/03/23 00:34:14;;;;;;;3.17;1.25;;;;;;;18.64;51.28;102620.75;5073010;28;20032;-75
2021/03/23 00:36:41;;;;;;;2.45;1.75;;;;;;;18.64;51.38;102612.00;5055372;28;20029;-75
2021/03/23 00:39:09;;;;;;;2.30;1.60;;;;;;;18.65;51.02;102619.00;5072587;28;20112;-75
2021/03/23 00:41:38;;;;;;;3.40;1.42;;;;;;;18.61;51.09;102615.44;5055370;28;20291;-75
2021/03/23 00:44:10;;;;;;;3.25;1.50;;;;;;;18.60;50.89;102615.38;5046268;28;20026;-75
2021/03/23 00:46:35;;;;;;;2.08;1.50;;;;;;;18.60;51.36;102615.38;5051419;28;20033;-75
2021/03/23 00:49:01;;;;;;;1.92;1.42;;;;;;;18.62;51.15;102616.31;5056151;28;20390;-75
2021/03/23 00:51:26;;;;;;;1.95;1.17;;;;;;;18.59;50.96;102609.25;5057436;28;20387;-75
2021/03/23 00:53:52;;;;;;;2.20;1.50;;;;;;;18.62;51.15;102617.19;5073737;28;20033;-75
2021/03/23 00:56:17;;;;;;;2.60;1.42;;;;;;;18.62;51.02;102611.97;5052984;28;20036;-75
2021/03/23 00:58:42;;;;;;;3.58;1.75;;;;;;;18.62;50.89;102613.69;5056829;28;20029;-75
2021/03/23 01:01:08;;;;;;;1.70;1.30;;;;;;;18.61;51.18;102614.53;5051885;28;20049;-75
2021/03/23 01:03:33;;;;;;;2.20;1.70;;;;;;;18.62;50.76;102605.84;5061794;28;20037;-74
2021/03/23 01:05:59;;;;;;;1.77;1.45;;;;;;;18.61;51.04;102604.06;5049294;28;20471;-75
2021/03/23 01:08:24;;;;;;;3.20;1.70;;;;;;;18.60;50.82;102607.53;5047214;28;20025;-74
2021/03/23 01:10:49;;;;;;;2.75;2.15;;;;;;;18.60;51.00;102605.81;5054505;28;20036;-75
2021/03/23 01:13:15;;;;;;;2.35;1.60;;;;;;;18.58;50.91;102602.25;5063491;28;20056;-75
2021/03/23 01:15:40;;;;;;;2.67;1.52;;;;;;;18.61;50.84;102606.69;5071163;28;20394;-75
2021/03/23 01:18:05;;;;;;;2.58;1.90;;;;;;;18.56;50.85;102599.56;5071164;28;20041;-75
2021/03/23 01:20:32;;;;;;;2.33;1.52;;;;;;;18.57;50.87;102597.81;5067872;28;20112;-74
2021/03/23 01:22:58;;;;;;;2.85;1.85;;;;;;;18.59;50.88;102595.28;5045524;28;20030;-74
2021/03/23 01:25:24;;;;;;;2.40;1.60;;;;;;;18.55;50.99;102596.94;5052940;28;20071;-74
2021/03/23 01:27:50;;;;;;;2.83;2.17;;;;;;;18.44;51.02;102573.09;5050625;28;20041;-74
2021/03/23 01:30:19;;;;;;;3.33;1.95;;;;;;;18.52;50.91;102581.13;5049265;28;20032;-74
2021/03/23 01:32:45;;;;;;;1.67;1.30;;;;;;;18.46;50.85;102568.78;5049758;28;20031;-74
2021/03/23 01:35:11;;;;;;;2.33;1.83;;;;;;;18.58;50.97;102594.41;5049872;28;20033;-74
2021/03/23 01:37:36;;;;;;;2.50;1.55;;;;;;;18.47;50.78;102573.16;5069936;28;20483;-74
2021/03/23 01:40:03;;;;;;;3.05;1.83;;;;;;;18.51;50.76;102585.50;5052793;28;20064;-74
2021/03/23 01:42:45;;;;;;;5.10;2.33;;;;;;;18.54;50.79;102587.31;5052856;28;20100;-74
2021/03/23 01:45:19;;;;;;;2.38;1.52;;;;;;;18.56;50.89;102588.22;5048016;28;20111;-73
2021/03/23 01:47:44;;;;;;;2.85;2.03;;;;;;;18.51;50.84;102579.38;5069988;28;20114;-74
2021/03/23 01:50:11;;;;;;;1.98;1.70;;;;;;;18.49;50.67;102571.47;5054900;28;20110;-74
2021/03/23 01:52:36;;;;;;;3.85;1.60;;;;;;;18.53;50.84;102573.31;5072952;28;20044;-74
2021/03/23 01:55:05;;;;;;;2.50;1.80;;;;;;;18.52;50.87;102575.91;5037005;28;20080;-74
2021/03/23 01:57:34;;;;;;;2.30;2.03;;;;;;;18.50;50.73;102568.00;5051437;28;20021;-74
2021/03/23 01:59:59;;;;;;;3.17;2.35;;;;;;;18.48;50.78;102555.72;5053434;28;20089;-74
2021/03/23 02:02:28;;;;;;;3.00;1.95;;;;;;;18.52;50.59;102557.56;5053060;28;20032;-74
2021/03/23 02:04:54;;;;;;;2.80;1.90;;;;;;;18.50;50.80;102562.75;5054856;28;20029;-74
2021/03/23 02:07:20;;;;;;;3.00;1.88;;;;;;;18.47;50.64;102559.19;5069835;28;20448;-74
2021/03/23 02:09:45;;;;;;;2.25;1.80;;;;;;;18.50;50.70;102567.13;5069559;28;20402;-74
2021/03/23 02:12:15;;;;;;;2.83;1.63;;;;;;;18.49;50.84;102563.59;5036138;28;20499;-74
2021/03/23 02:14:46;;;;;;;2.13;1.50;;;;;;;18.50;50.60;102564.50;5065944;28;20024;-74
2021/03/23 02:17:21;;;;;;;2.60;1.70;;;;;;;18.49;50.75;102558.38;5044739;28;20104;-74
2021/03/23 02:19:48;;;;;;;2.85;2.05;;;;;;;18.45;50.61;102548.66;5053686;28;20029;-74
2021/03/23 02:22:35;;;;;;;2.78;1.80;;;;;;;18.48;50.63;102550.47;5048202;28;20032;-74
2021/03/23 02:25:03;;;;;;;2.45;1.85;;;;;;;18.43;50.60;102539.03;5057056;28;20546;-74
2021/03/23 02:27:29;;;;;;;2.28;1.50;;;;;;;18.40;50.64;102531.97;5071477;28;20383;-74
2021/03/23 02:29:58;;;;;;;2.63;1.80;;;;;;;18.46;50.64;102539.97;5059491;28;20024;-74
2021/03/23 02:32:23;;;;;;;3.15;1.67;;;;;;;18.42;50.77;102532.03;5071924;28;20023;-74
2021/03/23 02:34:49;;;;;;;2.45;1.58;;;;;;;18.39;50.56;102529.31;5036795;28;20037;-74
2021/03/23 02:37:15;;;;;;;2.72;1.95;;;;;;;18.46;50.58;102544.31;5067672;28;20463;-74
2021/03/23 02:39:40;;;;;;;3.17;2.13;;;;;;;18.42;50.47;102539.88;5055570;28;20367;-74
2021/03/23 02:42:07;;;;;;;3.08;1.70;;;;;;;18.44;50.76;102538.16;5070386;28;20033;-74
2021/03/23 02:44:42;;;;;;;2.60;1.90;;;;;;;18.40;50.64;102541.56;5049683;28;20024;-74
2021/03/23 02:47:09;;;;;;;2.92;1.80;;;;;;;18.39;50.52;102531.94;5040968;28;20025;-74
2021/03/23 02:49:34;;;;;;;1.67;1.50;;;;;;;18.41;50.51;102535.47;5053383;28;20029;-74
2021/03/23 02:52:00;;;;;;;3.28;1.92;;;;;;;18.44;50.42;102535.53;5050292;28;20076;-74
2021/03/23 02:54:26;;;;;;;2.08;1.35;;;;;;;18.42;50.50;102538.16;5064983;28;20048;-74
2021/03/23 02:56:51;;;;;;;2.50;1.50;;;;;;;18.38;50.53;102531.06;5056082;28;20032;-74
2021/03/23 02:59:16;;;;;;;2.60;1.55;;;;;;;18.43;50.56;102541.66;5053242;28;20446;-74
2021/03/23 03:01:42;;;;;;;3.22;2.20;;;;;;;18.36;50.37;102522.28;5037244;28;20025;-74
2021/03/23 03:04:07;;;;;;;3.83;1.92;;;;;;;18.41;50.62;102538.09;5036063;28;20128;-74
2021/03/23 03:06:32;;;;;;;3.38;2.17;;;;;;;18.35;50.42;102523.13;5065362;28;20396;-74
2021/03/23 03:08:58;;;;;;;2.30;1.70;;;;;;;18.40;50.52;102537.22;5053542;28;20033;-74
2021/03/23 03:11:24;;;;;;;3.25;2.03;;;;;;;18.38;50.36;102538.91;5043972;28;20127;-74
2021/03/23 03:13:49;;;;;;;2.17;1.30;;;;;;;18.40;50.52;102545.06;5012790;28;20045;-74
2021/03/23 03:16:17;;;;;;;2.22;1.70;;;;;;;18.39;50.60;102538.06;5027363;28;20022;-74
2021/03/23 03:18:42;;;;;;;2.05;1.55;;;;;;;18.39;50.45;102531.94;5035065;28;20021;-74
2021/03/23 03:21:08;;;;;;;3.53;1.80;;;;;;;18.34;50.48;102533.56;5031228;28;20032;-74
2021/03/23 03:23:33;;;;;;;3.92;1.58;;;;;;;18.38;50.45;102533.69;5013430;28;20109;-74
2021/03/23 03:25:59;;;;;;;2.70;2.03;;;;;;;18.34;50.42;102523.09;5015402;28;20387;-74
2021/03/23 03:28:24;;;;;;;2.58;1.67;;;;;;;18.34;50.41;102533.56;5031929;28;20025;-74
2021/03/23 03:30:50;;;;;;;2.85;1.33;;;;;;;18.37;50.38;102531.91;5018816;28;20041;-74
2021/03/23 03:33:18;;;;;;;4.10;1.98;;;;;;;18.33;50.42;102522.19;5015351;28;20026;-74
2021/03/23 03:35:46;;;;;;;2.78;1.92;;;;;;;18.37;50.59;102517.94;5015380;28;20395;-74
2021/03/23 03:38:11;;;;;;;3.65;2.13;;;;;;;18.36;50.35;102522.28;5011915;28;20500;-74
2021/03/23 03:40:40;;;;;;;2.75;1.90;;;;;;;18.31;50.36;102513.41;5033451;28;20045;-75
2021/03/23 03:43:08;;;;;;;4.80;1.75;;;;;;;18.33;50.26;102519.59;5024495;28;20108;-75
2021/03/23 03:45:34;;;;;;;3.42;1.95;;;;;;;18.36;50.59;102521.38;5015657;28;20021;-75
2021/03/23 03:48:00;;;;;;;2.95;2.33;;;;;;;18.34;50.46;102513.50;5005861;28;20032;-75
2021/03/23 03:50:27;;;;;;;3.90;1.95;;;;;;;18.31;50.48;102502.06;5014529;28;20036;-74
2021/03/23 03:52:56;;;;;;;3.63;1.98;;;;;;;18.35;50.33;102506.53;5014797;28;20021;-74
2021/03/23 03:55:23;;;;;;;2.78;2.00;;;;;;;18.31;50.52;102504.69;5028059;28;20446;-74
2021/03/23 03:57:49;;;;;;;2.30;1.70;;;;;;;18.28;50.42;102502.00;5022299;28;20034;-74
2021/03/23 04:00:17;;;;;;;2.50;1.88;;;;;;;18.33;50.30;102508.22;5015961;28;20033;-74
2021/03/23 04:02:42;;;;;;;1.90;1.50;;;;;;;18.26;50.53;102493.25;5027782;28;20033;-74
2021/03/23 04:05:16;;;;;;;2.15;1.70;;;;;;;18.17;50.63;102488.69;5009983;28;20483;-74
2021/03/23 04:07:41;;;;;;;2.75;1.60;;;;;;;18.26;50.39;102501.09;5029793;28;20033;-74
2021/03/23 04:10:07;;;;;;;2.55;1.90;;;;;;;18.28;50.38;102502.00;5026883;28;20148;-74
2021/03/23 04:12:32;;;;;;;2.83;2.00;;;;;;;18.27;50.31;102506.38;4998275;28;20045;-74
2021/03/23 04:14:58;;;;;;;3.05;2.10;;;;;;;18.30;50.32;102516.91;5019448;28;20033;-74
2021/03/23 04:17:23;;;;;;;2.28;1.88;;;;;;;18.24;50.47;102506.28;5015361;28;20034;-74
2021/03/23 04:19:49;;;;;;;3.15;2.05;;;;;;;18.23;50.37;102504.53;5015277;28;20034;-74
2021/03/23 04:22:14;;;;;;;3.25;1.88;;;;;;;18.29;50.44;102519.50;5033076;28;20029;-75
2021/03/23 04:24:39;;;;;;;3.85;1.75;;;;;;;18.28;50.36;102518.63;5030446;28;20029;-75
2021/03/23 04:27:05;;;;;;;3.10;2.15;;;;;;;18.24;50.35;102510.66;5033521;28;20041;-75
2021/03/23 04:29:30;;;;;;;3.30;2.20;;;;;;;18.16;50.40;102503.50;5031076;28;20041;-76
2021/03/23 04:31:56;;;;;;;2.75;1.80;;;;;;;18.26;50.38;102522.03;5028092;28;20025;-75
2021/03/23 04:34:21;;;;;;;2.85;2.08;;;;;;;18.26;50.48;102522.94;5015753;28;20042;-75
2021/03/23 04:36:46;;;;;;;3.60;2.05;;;;;;;18.26;50.50;102528.16;5023979;28;20022;-75
2021/03/23 04:39:12;;;;;;;4.47;2.00;;;;;;;18.23;50.33;102527.19;5009053;28;20108;-74
2021/03/23 04:41:39;;;;;;;3.65;2.40;;;;;;;18.20;50.61;102518.41;5021722;28;20040;-75
2021/03/23 04:44:06;;;;;;;3.83;1.80;;;;;;;18.23;50.43;102521.97;5031098;28;20091;-75
2021/03/23 04:46:31;;;;;;;3.63;2.42;;;;;;;18.16;50.51;102513.09;5023258;28;20392;-75
2021/03/23 04:48:57;;;;;;;5.05;2.47;;;;;;;18.24;50.45;102526.34;5013695;28;20033;-75
2021/03/23 04:51:26;;;;;;;2.85;1.67;;;;;;;18.28;50.52;102529.09;5032016;28;20033;-75
2021/03/23 04:53:58;;;;;;;2.60;2.15;;;;;;;18.26;50.25;102504.59;5033387;28;20029;-75
2021/03/23 04:56:28;;;;;;;4.33;1.97;;;;;;;18.36;50.06;102513.53;5036447;28;20064;-75
2021/03/23 04:58:54;;;;;;;2.97;2.08;;;;;;;18.38;50.24;102520.59;5036895;28;20390;-75
2021/03/23 05:01:19;;;;;;;3.72;1.80;;;;;;;18.45;50.22;102524.19;5018551;28;20083;-74
2021/03/23 05:03:44;;;;;;;2.17;1.65;;;;;;;18.48;50.26;102509.44;5036088;28;20539;-75
2021/03/23 05:06:11;;;;;;;2.67;1.75;;;;;;;18.54;50.08;102521.81;5036368;28;20132;-75
2021/03/23 05:08:42;;;;;;;3.58;2.40;;;;;;;18.51;50.12;102524.34;5034846;28;20387;-75
2021/03/23 05:11:10;;;;;;;3.13;1.90;;;;;;;18.56;50.12;102520.09;5015220;28;20103;-75
2021/03/23 05:13:35;;;;;;;4.68;1.63;;;;;;;18.57;50.00;102514.00;5033142;28;20403;-75
2021/03/23 05:16:01;;;;;;;3.20;1.90;;;;;;;18.57;50.13;102509.63;5001946;28;20025;-74
2021/03/23 05:18:27;;;;;;;3.90;2.17;;;;;;;18.63;50.29;102519.41;5032612;28;20521;-74
2021/03/23 05:20:53;;;;;;;3.55;1.70;;;;;;;18.65;49.99;102517.72;5001941;28;20120;-75
2021/03/23 05:23:19;;;;;;;2.33;1.77;;;;;;;18.71;50.15;102509.94;5018619;28;20149;-76
2021/03/23 05:25:45;;;;;;;2.40;1.70;;;;;;;18.73;49.83;102523.97;5035339;28;20029;-78
2021/03/23 05:28:11;;;;;;;2.55;1.42;;;;;;;18.74;49.91;102525.75;5015675;28;20033;-79
2021/03/23 05:30:38;;;;;;;2.45;1.52;;;;;;;18.77;49.96;102510.09;5032283;28;20021;-78
2021/03/23 05:33:05;;;;;;;2.92;1.88;;;;;;;18.85;49.96;102523.34;5017718;28;20038;-73
2021/03/23 05:35:30;;;;;;;2.50;1.60;;;;;;;18.77;49.93;102510.09;5014994;28;20032;-73
2021/03/23 05:37:55;;;;;;;3.65;1.88;;;;;;;18.86;49.88;102519.88;5025595;28;20029;-73
2021/03/23 05:40:28;;;;;;;2.03;1.45;;;;;;;18.85;49.79;102508.50;5016296;28;20034;-73
2021/03/23 05:43:28;;;;;;;3.17;1.33;;;;;;;18.90;49.74;102524.31;5016053;28;20022;-74
2021/03/23 05:46:03;;;;;;;3.92;1.75;;;;;;;18.88;49.95;102523.41;5032713;28;20025;-73
2021/03/23 05:48:33;;;;;;;2.53;1.65;;;;;;;18.90;49.58;102521.72;5033843;28;20026;-74
2021/03/23 05:51:10;;;;;;;3.03;2.22;;;;;;;18.97;49.78;102541.94;5032599;28;20076;-77
2021/03/23 05:53:44;;;;;;;2.88;1.95;;;;;;;18.94;49.87;102538.41;5035781;28;20025;-77
2021/03/23 05:56:11;;;;;;;2.45;1.52;;;;;;;18.95;49.60;102530.56;5017720;28;20026;-76
2021/03/23 05:58:40;;;;;;;3.45;1.40;;;;;;;19.01;49.60;102535.91;5035174;28;20023;-76
2021/03/23 06:01:06;;;;;;;3.63;1.40;;;;;;;18.99;49.68;102535.00;5037431;28;20029;-76
2021/03/23 06:03:41;;;;;;;6.20;1.98;;;;;;;18.95;49.86;102538.44;5038567;28;20472;-76
2021/03/23 06:06:45;;;;;;;2.55;1.48;;;;;;;18.96;49.77;102544.53;5039871;28;20029;-76
2021/03/23 06:09:15;;;;;;;1.92;1.10;;;;;;;18.96;49.83;102542.78;5034946;28;20056;-76
2021/03/23 06:11:43;;;;;;;3.08;2.15;;;;;;;18.90;49.45;102535.69;5026226;28;20491;-77
2021/03/23 06:14:36;;;;;;;2.85;1.42;;;;;;;18.95;49.83;102541.03;5060406;28;20033;-76
2021/03/23 06:17:23;;;;;;;2.85;1.30;;;;;;;19.04;49.77;102540.34;5057427;28;20036;-74
2021/03/23 06:19:57;;;;;;;2.17;1.60;;;;;;;19.03;49.73;102538.56;5073432;28;20056;-73
2021/03/23 06:22:31;;;;;;;4.97;2.28;;;;;;;18.98;49.96;102540.19;5043318;28;20052;-74
2021/03/23 06:25:03;;;;;;;3.45;2.00;;;;;;;18.97;49.88;102533.19;5069515;28;20024;-73
2021/03/23 06:27:45;;;;;;;6.07;3.33;;;;;;;18.90;50.11;102522.59;5038738;28;20044;-74
2021/03/23 06:30:27;;;;;;;7.50;2.90;;;;;;;19.01;50.04;102545.50;5049880;28;20018;-72
2021/03/23 06:32:57;;;;;;;9.07;2.63;;;;;;;18.95;50.14;102532.28;5064564;28;20430;-72
2021/03/23 06:35:37;;;;;;;8.45;3.08;;;;;;;19.00;50.17;102539.38;5037488;28;20033;-72
2021/03/23 06:38:05;;;;;;;5.40;3.55;;;;;;;19.00;50.40;102544.63;5046879;28;20040;-72
2021/03/23 06:40:34;;;;;;;10.45;3.78;;;;;;;18.98;50.35;102543.69;5039648;28;20048;-72
2021/03/23 06:43:36;;;;;;;5.90;3.28;;;;;;;19.02;50.32;102548.16;5052686;28;20024;-71
2021/03/23 06:46:05;;;;;;;6.80;3.85;;;;;;;18.99;50.31;102544.59;4987191;28;20037;-72
2021/03/23 06:48:33;;;;;;;5.18;3.38;;;;;;;18.94;50.61;102541.91;5038435;28;20198;-72
2021/03/23 06:51:24;;;;;;;5.05;2.72;;;;;;;19.02;50.43;102548.16;5046463;28;20361;-72
2021/03/23 06:53:50;;;;;;;8.85;3.85;;;;;;;19.06;50.52;102559.59;5020819;28;20498;-72
2021/03/23 06:56:21;;;;;;;8.15;3.92;;;;;;;18.97;50.47;102548.91;5047357;28;20053;-72
2021/03/23 06:59:03;;;;;;;7.13;3.78;;;;;;;19.00;50.44;102555.13;5051995;28;20108;-72
2021/03/23 07:01:37;;;;;;;5.13;3.40;;;;;;;19.04;50.49;102562.19;5048005;28;20483;-72
2021/03/23 07:04:15;;;;;;;5.22;3.40;;;;;;;19.05;50.50;102565.69;5048164;28;20037;-72
2021/03/23 07:06:40;;;;;;;5.72;3.72;;;;;;;19.04;50.39;102574.41;5058045;28;20029;-72
2021/03/23 07:09:19;;;;;;;5.53;3.40;;;;;;;19.08;50.23;102573.63;5050287;28;20029;-71
2021/03/23 07:12:00;;;;;;;6.07;3.72;;;;;;;19.04;50.48;102561.31;5037838;28;20057;-72
2021/03/23 07:14:47;;;;;;;7.70;3.53;;;;;;;19.07;50.34;102574.50;5018427;28;20062;-72
2021/03/23 07:17:13;;;;;;;6.20;2.70;;;;;;;19.10;50.51;102572.78;5044783;28;20063;-71
2021/03/23 07:19:51;;;;;;;7.22;3.33;;;;;;;19.13;49.99;102572.84;5030432;28;20120;-71
2021/03/23 07:22:26;;;;;;;5.35;3.20;;;;;;;19.18;50.29;102570.34;5041279;28;20029;-72
2021/03/23 07:24:57;;;;;;;5.68;3.72;;;;;;;19.16;50.16;102570.31;5034992;28;20451;-73
2021/03/23 07:27:28;;;;;;;5.43;3.63;;;;;;;19.17;50.33;102566.81;5043976;28;20463;-72
2021/03/23 07:30:25;;;;;;;5.82;3.65;;;;;;;19.24;50.00;102573.06;5039883;28;20551;-72
2021/03/23 07:32:55;;;;;;;6.40;3.63;;;;;;;19.23;50.06;102568.66;5031462;28;20080;-72
2021/03/23 07:35:27;;;;;;;5.85;3.30;;;;;;;19.25;49.83;102569.59;5010769;28;20049;-74
2021/03/23 07:37:59;;;;;;;6.13;4.43;;;;;;;19.22;50.04;102566.91;5019024;28;20117;-73
2021/03/23 07:40:36;;;;;;;5.45;3.90;;;;;;;19.26;50.10;102576.59;5031123;28;20032;-73
2021/03/23 07:43:17;;;;;;;5.75;4.03;;;;;;;19.24;50.02;102579.19;5020589;28;20121;-73
2021/03/23 07:46:05;;;;;;;6.35;4.45;;;;;;;19.25;49.91;102580.06;5029825;28;20029;-74
2021/03/23 07:48:44;;;;;;;6.72;3.95;;;;;;;19.28;50.09;102588.91;5016982;28;20483;-74
2021/03/23 07:51:28;;;;;;;7.20;3.28;;;;;;;19.16;49.94;102575.53;5021930;28;20034;-73
2021/03/23 07:54:02;;;;;;;;;;;;;;;19.32;49.87;102597.72;5013406;28;20500;-74
2021/03/23 07:56:40;;;;;;;6.50;3.78;;;;;;;19.34;49.85;102592.50;5015314;28;19912;-73
2021/03/23 07:59:27;;;;;;;5.97;3.50;;;;;;;19.28;49.80;102582.75;5020746;28;20030;-73
2021/03/23 08:01:56;;;;;;;4.85;3.83;;;;;;;19.23;49.85;102569.56;5010626;28;20048;-73
2021/03/23 08:05:02;;;;;;;5.93;3.78;;;;;;;19.34;49.80;102577.66;5016350;28;20033;-73
2021/03/23 08:07:49;;;;;;;6.20;4.03;;;;;;;19.36;49.92;102590.78;4984122;28;20034;-74
2021/03/23 08:10:25;;;;;;;6.28;3.20;;;;;;;19.38;49.69;102589.94;5027018;28;20476;-74
2021/03/23 08:13:26;;;;;;;5.32;3.95;;;;;;;19.42;49.80;102590.91;5028685;28;20384;-74
2021/03/23 08:16:08;;;;;;;4.15;3.42;;;;;;;19.32;49.83;102583.72;5022603;28;20085;-73
2021/03/23 08:18:44;;;;;;;4.27;3.20;;;;;;;19.42;49.83;102591.78;5011795;28;20087;-74
2021/03/23 08:21:35;;;;;;;5.88;4.13;;;;;;;19.44;49.56;102591.81;5033705;28;20352;-73
2021/03/23 08:24:18;;;;;;;4.75;3.42;;;;;;;19.43;50.00;102595.28;5033140;28;20042;-74
2021/03/23 08:26:52;;;;;;;4.65;3.60;;;;;;;19.45;49.62;102589.22;5022704;28;20136;-74
2021/03/23 08:29:35;;;;;;;5.53;3.25;;;;;;;19.47;49.64;102584.00;5017212;28;20057;-73
2021/03/23 08:32:38;;;;;;;3.60;3.30;;;;;;;19.48;49.63;102581.38;5019457;28;20037;-74
2021/03/23 08:35:21;;;;;;;4.85;3.33;;;;;;;19.47;49.76;102573.53;5047439;28;20013;-73
2021/03/23 08:38:01;;;;;;;4.85;3.80;;;;;;;19.51;49.67;102585.84;5035849;28;20033;-74
2021/03/23 08:40:47;;;;;;;4.63;3.25;;;;;;;19.48;49.50;102578.75;5026807;28;20029;-73
2021/03/23 08:43:17;;;;;;;4.45;3.17;;;;;;;19.49;49.74;102583.19;5036066;28;20018;-74
2021/03/23 08:45:50;;;;;;;3.88;3.35;;;;;;;19.52;49.64;102579.75;5032919;28;20064;-74
2021/03/23 08:48:26;;;;;;;5.50;4.15;;;;;;;19.54;49.40;102572.78;5032611;28;20063;-73
2021/03/23 08:51:00;;;;;;;4.38;3.08;;;;;;;19.55;49.57;102577.19;5027443;28;20037;-73
2021/03/23 08:53:29;;;;;;;6.47;3.88;;;;;;;19.62;49.67;102577.31;5035382;28;20577;-73
2021/03/23 08:55:55;;;;;;;5.18;3.03;;;;;;;19.65;49.24;102579.13;5036591;28;20029;-73
2021/03/23 08:58:54;;;;;;;4.10;2.83;;;;;;;19.63;49.28;102572.94;5036823;28;20468;-73
2021/03/23 09:01:29;;;;;;;4.45;3.50;;;;;;;19.75;49.11;102586.28;5034727;28;20128;-73
2021/03/23 09:04:16;;;;;;;4.25;3.65;;;;;;;19.77;49.19;102592.44;5032960;28;20025;-74
2021/03/23 09:07:02;;;;;;;4.30;3.20;;;;;;;19.72;49.06;102585.38;5031523;28;20032;-73
2021/03/23 09:09:30;;;;;;;4.00;3.45;;;;;;;19.78;49.21;102586.34;5036002;28;20065;-73
2021/03/23 09:12:33;;;;;;;4.93;4.15;;;;;;;19.81;49.00;102585.53;5039650;28;20055;-73
2021/03/23 09:15:18;;;;;;;3.80;3.20;;;;;;;19.82;48.93;102579.41;5028875;28;20422;-74
2021/03/23 09:18:15;;;;;;;3.30;3.00;;;;;;;19.88;48.99;102582.13;5035387;28;20080;-73
2021/03/23 09:20:40;;;;;;;5.70;3.70;;;;;;;19.86;49.08;102594.38;5023172;28;20025;-73
2021/03/23 09:23:15;;;;;;;3.67;2.95;;;;;;;19.83;48.99;102596.94;5029397;28;20029;-73
2021/03/23 09:25:52;;;;;;;4.18;3.13;;;;;;;19.88;48.94;102582.13;5023242;28;20026;-74
2021/03/23 09:28:50;;;;;;;4.32;3.28;;;;;;;19.90;48.92;102593.53;5016622;28;20022;-73
2021/03/23 09:31:41;;;;;;;4.78;3.42;;;;;;;19.88;48.81;102590.00;5019652;28;20041;-73
2021/03/23 09:34:45;;;;;;;3.88;2.90;;;;;;;19.89;48.96;102583.91;5036288;28;20104;-73
2021/03/23 09:37:39;;;;;;;4.78;3.17;;;;;;;19.88;49.11;102588.25;5036345;28;20557;-74
2021/03/23 09:40:16;;;;;;;3.28;2.40;;;;;;;19.87;49.13;102583.88;5030801;28;20114;-73
2021/03/23 09:42:45;;;;;;;3.85;3.17;;;;;;;19.80;49.02;102570.63;5035982;28;20044;-73
2021/03/23 09:45:11;;;;;;;3.03;2.65;;;;;;;19.89;49.05;102592.66;5034298;28;20037;-73
2021/03/23 09:47:58;;;;;;;3.70;3.13;;;;;;;19.84;49.06;102599.59;5010720;28;20028;-74
2021/03/23 09:50:50;;;;;;;4.70;3.28;;;;;;;19.78;49.11;102585.47;5017629;28;20128;-73
2021/03/23 09:53:28;;;;;;;4.00;2.70;;;;;;;19.78;48.98;102593.34;5014821;28;20018;-73
2021/03/23 09:56:02;;;;;;;3.75;3.33;;;;;;;19.69;49.14;102587.94;5031568;28;20031;-73
2021/03/23 09:58:27;;;;;;;4.38;3.50;;;;;;;19.73;49.26;102589.75;5038420;28;20100;-74
2021/03/23 10:01:10;;;;;;;5.25;3.65;;;;;;;19.68;49.29;102599.28;5034836;28;20458;-74
2021/03/23 10:03:37;;;;;;;3.65;3.03;;;;;;;19.68;49.38;102605.41;5025478;28;20022;-74
2021/03/23 10:06:06;;;;;;;4.38;3.38;;;;;;;19.62;49.52;102603.56;5037078;28;20024;-74
2021/03/23 10:08:33;;;;;;;3.78;3.13;;;;;;;19.65;49.43;102609.72;5033996;28;20029;-73
2021/03/23 10:11:15;;;;;;;4.20;3.42;;;;;;;19.68;49.21;102604.53;5033582;28;20079;-74
2021/03/23 10:13:48;;;;;;;4.15;3.20;;;;;;;19.68;49.30;102599.28;5042430;28;20042;-73
2021/03/23 10:16:33;;;;;;;;;;;;;;;19.68;49.19;102596.66;5050261;28;20029;-73
2021/03/23 10:19:03;;;;;;;6.00;3.72;;;;;;;19.59;49.34;102592.16;5053998;28;20389;-74
2021/03/23 10:21:32;;;;;;;4.97;3.60;;;;;;;19.63;49.20;102602.69;5055685;28;20025;-73
2021/03/23 10:24:01;;;;;;;6.25;4.03;;;;;;;19.64;49.15;102608.84;5054345;28;20025;-74
2021/03/23 10:26:54;;;;;;;4.05;3.53;;;;;;;19.62;49.08;102603.56;5042939;28;20024;-73
2021/03/23 10:29:33;;;;;;;4.63;3.25;;;;;;;19.55;49.22;102604.31;5046660;28;20045;-74
2021/03/23 10:32:15;;;;;;;4.57;3.85;;;;;;;19.59;49.31;102610.50;5055136;28;20124;-74
2021/03/23 10:35:01;;;;;;;5.68;4.07;;;;;;;19.56;49.41;102613.06;5043399;28;20032;-73
2021/03/23 10:37:26;;;;;;;4.75;4.25;;;;;;;19.55;49.42;102604.31;5053870;28;20398;-73
2021/03/23 10:39:51;;;;;;;4.43;3.95;;;;;;;19.56;49.41;102607.81;5043473;28;20025;-73
2021/03/23 10:42:26;;;;;;;4.57;3.80;;;;;;;19.51;49.27;102601.59;5066630;28;20021;-73
2021/03/23 10:45:08;;;;;;;6.20;4.38;;;;;;;19.52;49.51;102606.88;5059888;28;20036;-73
2021/03/23 10:47:38;;;;;;;3.78;3.30;;;;;;;19.54;49.36;102602.53;5050992;28;20025;-74
2021/03/23 10:50:18;;;;;;;4.53;3.17;;;;;;;19.54;49.53;102613.03;5052835;28;20025;-73
2021/03/23 10:52:44;;;;;;;3.58;3.28;;;;;;;19.52;49.17;102606.88;5043328;28;20036;-74
2021/03/23 10:55:26;;;;;;;5.78;3.50;;;;;;;19.53;49.39;102616.53;5036731;28;20037;-74
2021/03/23 10:58:17;;;;;;;3.75;3.20;;;;;;;19.53;49.18;102610.38;5053565;28;20032;-73
2021/03/23 11:00:44;;;;;;;4.03;3.63;;;;;;;19.53;49.20;102606.03;5052776;28;20028;-73
2021/03/23 11:03:19;;;;;;;5.40;4.38;;;;;;;19.54;49.40;102609.53;5050205;28;20033;-73
2021/03/23 11:05:47;;;;;;;5.55;4.18;;;;;;;19.53;49.28;102606.03;5049807;28;20024;-73
2021/03/23 11:08:14;;;;;;;4.82;3.85;;;;;;;19.52;49.22;102600.75;5048995;28;20059;-73
2021/03/23 11:10:40;;;;;;;5.00;4.43;;;;;;;19.50;49.46;102592.84;5048862;28;20045;-73
2021/03/23 11:13:05;;;;;;;4.57;3.63;;;;;;;19.46;49.23;102596.25;5045125;28;20052;-74
2021/03/23 11:15:39;;;;;;;5.47;4.55;;;;;;;19.52;49.03;102606.00;5055426;28;20037;-74
2021/03/23 11:18:16;;;;;;;5.07;3.67;;;;;;;19.47;49.12;102592.78;5060880;28;20025;-73
2021/03/23 11:20:43;;;;;;;7.50;4.75;;;;;;;19.52;49.18;102603.38;5047813;28;20074;-73
2021/03/23 11:23:53;;;;;;;5.07;3.90;;;;;;;19.52;49.16;102608.63;5046565;28;20021;-73
2021/03/23 11:26:22;;;;;;;4.93;3.85;;;;;;;19.44;49.21;102591.81;5052963;28;20497;-73
2021/03/23 11:28:54;;;;;;;5.57;3.78;;;;;;;19.47;49.43;102595.41;5063109;28;20044;-74
2021/03/23 11:31:21;;;;;;;8.45;5.82;;;;;;;19.51;49.29;102598.97;5068254;28;20463;-74
2021/03/23 11:33:48;;;;;;;4.45;3.65;;;;;;;19.50;49.30;102599.81;5045679;28;20029;-74
2021/03/23 11:36:13;;;;;;;7.50;4.85;;;;;;;19.52;49.03;102603.38;5061411;28;20017;-76
2021/03/23 11:38:40;;;;;;;5.07;4.28;;;;;;;19.56;48.99;102599.94;5071597;28;20040;-72
2021/03/23 11:41:12;;;;;;;6.35;5.30;;;;;;;19.67;49.04;102592.25;5065368;28;20033;-76
2021/03/23 11:43:49;;;;;;;4.85;4.03;;;;;;;19.69;49.16;102601.94;5057195;28;20028;-76
2021/03/23 11:46:27;;;;;;;5.10;4.55;;;;;;;19.71;49.02;102604.59;5065046;28;20069;-72
2021/03/23 11:49:04;;;;;;;5.22;4.25;;;;;;;19.73;49.03;102595.00;5054618;28;20025;-73